sensor_id;sensor_type;location;lat;lon;timestamp;P1;durP1;ratioP1;P2;durP2;ratioP2
41229;SDS011;26964;50.428;19.218;2024-02-15T00:00:23;65.8;;;36.8;;
41229;SDS011;26964;50.428;19.218;2024-02-15T00:01:25;63.7;;;35.1;;
41229;SDS011;26964;50.428;19.218;2024-02-15T00:02:21;60.6;;;35.2;;
41229;SDS011;26964;50.428;19.218;2024-02-15T00:03:22;60.9;;;35.4;;
41229;SDS011;26964;50.428;19.218;2024-02-15T00:04:22;58.9;;;35.8;;
41229;SDS011;26964;50.428;19.218;2024-02-15T00:05:22;64.1;;;36.2;;
41229;SDS011;26964;50.428;19.218;2024-02-15T00:06:21;59.6;;;36.4;;
41229;SDS011;26964;50.428;19.218;2024-02-15T00:07:22;61.9;;;36.6;;
41229;SDS011;26964;50.428;19.218;2024-02-15T00:08:22;64.7;;;37.4;;
41229;SDS011;26964;50.428;19.218;2024-02-15T00:09:22;67.6;;;39.0;;
41229;SDS011;26964;50.428;19.218;2024-02-15T00:10:22;69.6;;;40.3;;
41229;SDS011;26964;50.428;19.218;2024-02-15T00:11:22;74.0;;;41.2;;
41229;SDS011;26964;50.428;19.218;2024-02-15T00:12:22;69.5;;;42.6;;
41229;SDS011;26964;50.428;19.218;2024-02-15T00:13:22;68.2;;;42.2;;
41229;SDS011;26964;50.428;19.218;2024-02-15T00:14:21;72.5;;;42.1;;
41229;SDS011;26964;50.428;19.218;2024-02-15T00:15:22;63.7;;;39.6;;
41229;SDS011;26964;50.428;19.218;2024-02-15T00:16:22;66.9;;;38.9;;
41229;SDS011;26964;50.428;19.218;2024-02-15T00:17:21;65.2;;;39.2;;
41229;SDS011;26964;50.428;19.218;2024-02-15T00:18:22;66.5;;;40.7;;
41229;SDS011;26964;50.428;19.218;2024-02-15T00:19:21;64.1;;;37.1;;
41229;SDS011;26964;50.428;19.218;2024-02-15T00:20:21;62.2;;;38.8;;
41229;SDS011;26964;50.428;19.218;2024-02-15T00:21:22;65.9;;;37.1;;
41229;SDS011;26964;50.428;19.218;2024-02-15T00:22:25;60.6;;;36.5;;
41229;SDS011;26964;50.428;19.218;2024-02-15T00:23:21;60.4;;;34.9;;
41229;SDS011;26964;50.428;19.218;2024-02-15T00:24:22;60.3;;;35.8;;
41229;SDS011;26964;50.428;19.218;2024-02-15T00:25:21;63.1;;;36.0;;
41229;SDS011;26964;50.428;19.218;2024-02-15T00:26:22;61.7;;;35.1;;
41229;SDS011;26964;50.428;19.218;2024-02-15T00:27:21;62.3;;;36.1;;
41229;SDS011;26964;50.428;19.218;2024-02-15T00:28:21;59.6;;;35.4;;
41229;SDS011;26964;50.428;19.218;2024-02-15T00:29:21;65.7;;;36.8;;
41229;SDS011;26964;50.428;19.218;2024-02-15T00:30:21;53.2;;;33.1;;
41229;SDS011;26964;50.428;19.218;2024-02-15T00:31:21;66.9;;;35.0;;
41229;SDS011;26964;50.428;19.218;2024-02-15T00:32:21;62.6;;;36.8;;
41229;SDS011;26964;50.428;19.218;2024-02-15T00:33:22;63.5;;;36.3;;
41229;SDS011;26964;50.428;19.218;2024-02-15T00:34:22;77.0;;;41.9;;
41229;SDS011;26964;50.428;19.218;2024-02-15T00:35:22;92.5;;;49.8;;
41229;SDS011;26964;50.428;19.218;2024-02-15T00:36:22;102.2;;;52.9;;
41229;SDS011;26964;50.428;19.218;2024-02-15T00:37:22;131.2;;;67.0;;
41229;SDS011;26964;50.428;19.218;2024-02-15T00:38:22;146.7;;;74.7;;
41229;SDS011;26964;50.428;19.218;2024-02-15T00:39:25;148.3;;;73.5;;
41229;SDS011;26964;50.428;19.218;2024-02-15T00:40:22;141.2;;;70.1;;
41229;SDS011;26964;50.428;19.218;2024-02-15T00:41:22;135.7;;;67.4;;
41229;SDS011;26964;50.428;19.218;2024-02-15T00:42:23;229.8;;;112.1;;
41229;SDS011;26964;50.428;19.218;2024-02-15T00:44:22;207.2;;;96.7;;
41229;SDS011;26964;50.428;19.218;2024-02-15T00:45:22;163.9;;;75.1;;
41229;SDS011;26964;50.428;19.218;2024-02-15T00:46:22;209.3;;;92.4;;
41229;SDS011;26964;50.428;19.218;2024-02-15T00:47:22;205.1;;;87.0;;
41229;SDS011;26964;50.428;19.218;2024-02-15T00:48:22;188.1;;;85.1;;
41229;SDS011;26964;50.428;19.218;2024-02-15T00:49:22;160.8;;;74.9;;
41229;SDS011;26964;50.428;19.218;2024-02-15T00:50:25;149.7;;;69.9;;
41229;SDS011;26964;50.428;19.218;2024-02-15T00:51:22;153.1;;;74.5;;
41229;SDS011;26964;50.428;19.218;2024-02-15T00:52:22;144.5;;;71.7;;
41229;SDS011;26964;50.428;19.218;2024-02-15T00:53:22;155.1;;;72.8;;
41229;SDS011;26964;50.428;19.218;2024-02-15T00:54:22;151.9;;;71.9;;
41229;SDS011;26964;50.428;19.218;2024-02-15T00:55:22;137.3;;;65.1;;
41229;SDS011;26964;50.428;19.218;2024-02-15T00:56:21;110.8;;;55.5;;
41229;SDS011;26964;50.428;19.218;2024-02-15T00:57:21;88.5;;;46.7;;
41229;SDS011;26964;50.428;19.218;2024-02-15T00:58:21;87.8;;;46.6;;
41229;SDS011;26964;50.428;19.218;2024-02-15T00:59:21;83.0;;;45.9;;
41229;SDS011;26964;50.428;19.218;2024-02-15T01:00:22;92.9;;;49.8;;
41229;SDS011;26964;50.428;19.218;2024-02-15T01:01:25;103.2;;;53.2;;
41229;SDS011;26964;50.428;19.218;2024-02-15T01:02:21;111.4;;;56.8;;
41229;SDS011;26964;50.428;19.218;2024-02-15T01:03:23;99.8;;;50.1;;
41229;SDS011;26964;50.428;19.218;2024-02-15T01:04:21;84.4;;;46.2;;
41229;SDS011;26964;50.428;19.218;2024-02-15T01:05:21;91.6;;;48.5;;
41229;SDS011;26964;50.428;19.218;2024-02-15T01:06:21;98.0;;;50.4;;
41229;SDS011;26964;50.428;19.218;2024-02-15T01:07:21;80.6;;;44.1;;
41229;SDS011;26964;50.428;19.218;2024-02-15T01:08:22;90.5;;;48.0;;
41229;SDS011;26964;50.428;19.218;2024-02-15T01:09:21;102.5;;;50.1;;
41229;SDS011;26964;50.428;19.218;2024-02-15T01:10:22;98.1;;;50.3;;
41229;SDS011;26964;50.428;19.218;2024-02-15T01:11:21;95.9;;;49.3;;
41229;SDS011;26964;50.428;19.218;2024-02-15T01:12:21;93.4;;;50.1;;
41229;SDS011;26964;50.428;19.218;2024-02-15T01:13:21;82.6;;;46.5;;
41229;SDS011;26964;50.428;19.218;2024-02-15T01:14:22;91.7;;;48.7;;
41229;SDS011;26964;50.428;19.218;2024-02-15T01:15:21;71.1;;;40.6;;
41229;SDS011;26964;50.428;19.218;2024-02-15T01:16:21;68.4;;;38.7;;
41229;SDS011;26964;50.428;19.218;2024-02-15T01:17:21;65.2;;;38.4;;
41229;SDS011;26964;50.428;19.218;2024-02-15T01:18:21;67.3;;;39.3;;
41229;SDS011;26964;50.428;19.218;2024-02-15T01:19:21;68.0;;;39.2;;
41229;SDS011;26964;50.428;19.218;2024-02-15T01:20:21;65.2;;;37.3;;
41229;SDS011;26964;50.428;19.218;2024-02-15T01:21:22;69.7;;;38.9;;
41229;SDS011;26964;50.428;19.218;2024-02-15T01:22:22;63.9;;;37.7;;
41229;SDS011;26964;50.428;19.218;2024-02-15T01:23:21;57.4;;;35.4;;
41229;SDS011;26964;50.428;19.218;2024-02-15T01:24:23;58.1;;;34.7;;
41229;SDS011;26964;50.428;19.218;2024-02-15T01:25:21;64.7;;;36.8;;
41229;SDS011;26964;50.428;19.218;2024-02-15T01:26:21;66.9;;;37.6;;
41229;SDS011;26964;50.428;19.218;2024-02-15T01:27:21;62.9;;;36.7;;
41229;SDS011;26964;50.428;19.218;2024-02-15T01:28:21;63.9;;;36.3;;
41229;SDS011;26964;50.428;19.218;2024-02-15T01:29:21;64.0;;;34.7;;
41229;SDS011;26964;50.428;19.218;2024-02-15T01:30:21;63.1;;;35.7;;
41229;SDS011;26964;50.428;19.218;2024-02-15T01:31:21;63.5;;;36.0;;
41229;SDS011;26964;50.428;19.218;2024-02-15T01:32:21;59.0;;;35.3;;
41229;SDS011;26964;50.428;19.218;2024-02-15T01:33:22;63.7;;;34.8;;
41229;SDS011;26964;50.428;19.218;2024-02-15T01:34:21;62.6;;;35.2;;
41229;SDS011;26964;50.428;19.218;2024-02-15T01:35:21;63.0;;;36.0;;
41229;SDS011;26964;50.428;19.218;2024-02-15T01:36:21;62.4;;;36.1;;
41229;SDS011;26964;50.428;19.218;2024-02-15T01:37:21;59.3;;;35.3;;
41229;SDS011;26964;50.428;19.218;2024-02-15T01:38:21;62.5;;;35.4;;
41229;SDS011;26964;50.428;19.218;2024-02-15T01:39:21;62.0;;;35.5;;
41229;SDS011;26964;50.428;19.218;2024-02-15T01:40:21;56.6;;;34.8;;
41229;SDS011;26964;50.428;19.218;2024-02-15T01:41:21;60.8;;;34.9;;
41229;SDS011;26964;50.428;19.218;2024-02-15T01:42:21;59.2;;;34.0;;
41229;SDS011;26964;50.428;19.218;2024-02-15T01:43:21;59.5;;;35.3;;
41229;SDS011;26964;50.428;19.218;2024-02-15T01:44:22;60.0;;;34.9;;
41229;SDS011;26964;50.428;19.218;2024-02-15T01:45:24;57.6;;;33.3;;
41229;SDS011;26964;50.428;19.218;2024-02-15T01:46:21;57.3;;;32.1;;
41229;SDS011;26964;50.428;19.218;2024-02-15T01:47:21;50.1;;;32.2;;
41229;SDS011;26964;50.428;19.218;2024-02-15T01:48:21;55.7;;;33.7;;
41229;SDS011;26964;50.428;19.218;2024-02-15T01:49:21;56.4;;;33.0;;
41229;SDS011;26964;50.428;19.218;2024-02-15T01:50:21;55.2;;;32.0;;
41229;SDS011;26964;50.428;19.218;2024-02-15T01:51:21;56.5;;;32.8;;
41229;SDS011;26964;50.428;19.218;2024-02-15T01:52:21;52.9;;;33.3;;
41229;SDS011;26964;50.428;19.218;2024-02-15T01:53:21;53.8;;;33.1;;
41229;SDS011;26964;50.428;19.218;2024-02-15T01:54:21;54.2;;;31.7;;
41229;SDS011;26964;50.428;19.218;2024-02-15T01:55:21;54.6;;;31.7;;
41229;SDS011;26964;50.428;19.218;2024-02-15T01:56:21;55.9;;;33.2;;
41229;SDS011;26964;50.428;19.218;2024-02-15T01:57:21;58.6;;;32.4;;
41229;SDS011;26964;50.428;19.218;2024-02-15T01:58:21;53.0;;;31.0;;
41229;SDS011;26964;50.428;19.218;2024-02-15T01:59:21;55.4;;;31.6;;
41229;SDS011;26964;50.428;19.218;2024-02-15T02:00:21;52.8;;;30.8;;
41229;SDS011;26964;50.428;19.218;2024-02-15T02:01:21;53.4;;;31.5;;
41229;SDS011;26964;50.428;19.218;2024-02-15T02:02:21;53.6;;;29.3;;
41229;SDS011;26964;50.428;19.218;2024-02-15T02:03:21;54.5;;;29.8;;
41229;SDS011;26964;50.428;19.218;2024-02-15T02:04:21;59.4;;;34.6;;
41229;SDS011;26964;50.428;19.218;2024-02-15T02:05:21;76.4;;;42.5;;
41229;SDS011;26964;50.428;19.218;2024-02-15T02:06:24;75.3;;;42.9;;
41229;SDS011;26964;50.428;19.218;2024-02-15T02:07:21;72.2;;;43.3;;
41229;SDS011;26964;50.428;19.218;2024-02-15T02:08:21;65.4;;;39.2;;
41229;SDS011;26964;50.428;19.218;2024-02-15T02:09:22;91.6;;;54.4;;
41229;SDS011;26964;50.428;19.218;2024-02-15T02:10:22;119.1;;;66.6;;
41229;SDS011;26964;50.428;19.218;2024-02-15T02:11:22;147.1;;;78.8;;
41229;SDS011;26964;50.428;19.218;2024-02-15T02:12:22;129.1;;;69.3;;
41229;SDS011;26964;50.428;19.218;2024-02-15T02:13:22;180.5;;;93.1;;
41229;SDS011;26964;50.428;19.218;2024-02-15T02:14:22;170.9;;;89.1;;
41229;SDS011;26964;50.428;19.218;2024-02-15T02:15:22;172.7;;;90.0;;
41229;SDS011;26964;50.428;19.218;2024-02-15T02:17:22;146.5;;;76.2;;
41229;SDS011;26964;50.428;19.218;2024-02-15T02:18:22;154.1;;;80.6;;
41229;SDS011;26964;50.428;19.218;2024-02-15T02:19:21;152.4;;;78.4;;
41229;SDS011;26964;50.428;19.218;2024-02-15T02:20:22;90.7;;;49.6;;
41229;SDS011;26964;50.428;19.218;2024-02-15T02:21:21;121.8;;;60.9;;
41229;SDS011;26964;50.428;19.218;2024-02-15T02:22:21;83.9;;;45.6;;
41229;SDS011;26964;50.428;19.218;2024-02-15T02:23:24;82.2;;;45.5;;
41229;SDS011;26964;50.428;19.218;2024-02-15T02:24:22;107.1;;;54.2;;
41229;SDS011;26964;50.428;19.218;2024-02-15T02:25:21;85.4;;;45.6;;
41229;SDS011;26964;50.428;19.218;2024-02-15T02:26:21;75.9;;;40.9;;
41229;SDS011;26964;50.428;19.218;2024-02-15T02:27:24;86.5;;;43.4;;
41229;SDS011;26964;50.428;19.218;2024-02-15T02:28:21;70.8;;;38.2;;
41229;SDS011;26964;50.428;19.218;2024-02-15T02:29:21;59.7;;;32.0;;
41229;SDS011;26964;50.428;19.218;2024-02-15T02:30:21;58.4;;;32.6;;
41229;SDS011;26964;50.428;19.218;2024-02-15T02:31:21;49.5;;;29.6;;
41229;SDS011;26964;50.428;19.218;2024-02-15T02:32:21;52.6;;;29.8;;
41229;SDS011;26964;50.428;19.218;2024-02-15T02:33:21;50.6;;;30.6;;
41229;SDS011;26964;50.428;19.218;2024-02-15T02:34:21;50.3;;;29.2;;
41229;SDS011;26964;50.428;19.218;2024-02-15T02:35:21;46.9;;;27.8;;
41229;SDS011;26964;50.428;19.218;2024-02-15T02:36:21;44.8;;;27.6;;
41229;SDS011;26964;50.428;19.218;2024-02-15T02:37:21;49.0;;;29.4;;
41229;SDS011;26964;50.428;19.218;2024-02-15T02:38:21;48.3;;;26.8;;
41229;SDS011;26964;50.428;19.218;2024-02-15T02:39:21;45.7;;;26.4;;
41229;SDS011;26964;50.428;19.218;2024-02-15T02:40:21;45.8;;;27.3;;
41229;SDS011;26964;50.428;19.218;2024-02-15T02:41:21;49.1;;;27.4;;
41229;SDS011;26964;50.428;19.218;2024-02-15T02:42:21;44.0;;;25.3;;
41229;SDS011;26964;50.428;19.218;2024-02-15T02:43:21;46.0;;;26.5;;
41229;SDS011;26964;50.428;19.218;2024-02-15T02:44:21;46.7;;;26.4;;
41229;SDS011;26964;50.428;19.218;2024-02-15T02:45:22;48.8;;;27.0;;
41229;SDS011;26964;50.428;19.218;2024-02-15T02:46:21;41.9;;;24.9;;
41229;SDS011;26964;50.428;19.218;2024-02-15T02:47:21;47.3;;;25.4;;
41229;SDS011;26964;50.428;19.218;2024-02-15T02:48:23;48.6;;;26.9;;
41229;SDS011;26964;50.428;19.218;2024-02-15T02:49:21;44.6;;;26.0;;
41229;SDS011;26964;50.428;19.218;2024-02-15T02:50:21;44.8;;;25.4;;
41229;SDS011;26964;50.428;19.218;2024-02-15T02:51:21;45.5;;;26.7;;
41229;SDS011;26964;50.428;19.218;2024-02-15T02:52:21;48.1;;;26.1;;
41229;SDS011;26964;50.428;19.218;2024-02-15T02:53:21;49.0;;;26.4;;
41229;SDS011;26964;50.428;19.218;2024-02-15T02:54:21;46.1;;;26.8;;
41229;SDS011;26964;50.428;19.218;2024-02-15T02:55:22;47.8;;;26.5;;
41229;SDS011;26964;50.428;19.218;2024-02-15T02:56:22;42.4;;;25.3;;
41229;SDS011;26964;50.428;19.218;2024-02-15T02:57:21;41.4;;;25.7;;
41229;SDS011;26964;50.428;19.218;2024-02-15T02:58:21;44.4;;;25.2;;
41229;SDS011;26964;50.428;19.218;2024-02-15T02:59:21;42.5;;;24.7;;
41229;SDS011;26964;50.428;19.218;2024-02-15T03:00:21;51.3;;;24.6;;
41229;SDS011;26964;50.428;19.218;2024-02-15T03:01:22;40.2;;;25.2;;
41229;SDS011;26964;50.428;19.218;2024-02-15T03:02:21;42.4;;;24.8;;
41229;SDS011;26964;50.428;19.218;2024-02-15T03:03:21;45.5;;;27.2;;
41229;SDS011;26964;50.428;19.218;2024-02-15T03:04:21;39.2;;;23.9;;
41229;SDS011;26964;50.428;19.218;2024-02-15T03:05:21;41.3;;;23.2;;
41229;SDS011;26964;50.428;19.218;2024-02-15T03:06:21;38.0;;;23.0;;
41229;SDS011;26964;50.428;19.218;2024-02-15T03:07:21;36.4;;;21.7;;
41229;SDS011;26964;50.428;19.218;2024-02-15T03:08:21;34.3;;;21.9;;
41229;SDS011;26964;50.428;19.218;2024-02-15T03:09:23;35.7;;;20.6;;
41229;SDS011;26964;50.428;19.218;2024-02-15T03:10:21;37.2;;;22.5;;
41229;SDS011;26964;50.428;19.218;2024-02-15T03:11:21;36.1;;;21.3;;
41229;SDS011;26964;50.428;19.218;2024-02-15T03:12:21;36.2;;;20.7;;
41229;SDS011;26964;50.428;19.218;2024-02-15T03:13:21;40.3;;;21.2;;
41229;SDS011;26964;50.428;19.218;2024-02-15T03:14:21;35.7;;;21.5;;
41229;SDS011;26964;50.428;19.218;2024-02-15T03:15:21;34.4;;;20.7;;
41229;SDS011;26964;50.428;19.218;2024-02-15T03:16:21;38.8;;;21.4;;
41229;SDS011;26964;50.428;19.218;2024-02-15T03:17:22;38.0;;;20.6;;
41229;SDS011;26964;50.428;19.218;2024-02-15T03:18:21;38.3;;;21.6;;
41229;SDS011;26964;50.428;19.218;2024-02-15T03:19:21;37.2;;;21.1;;
41229;SDS011;26964;50.428;19.218;2024-02-15T03:20:21;35.1;;;20.8;;
41229;SDS011;26964;50.428;19.218;2024-02-15T03:21:21;33.4;;;20.4;;
41229;SDS011;26964;50.428;19.218;2024-02-15T03:22:21;38.3;;;21.1;;
41229;SDS011;26964;50.428;19.218;2024-02-15T03:23:21;35.4;;;20.6;;
41229;SDS011;26964;50.428;19.218;2024-02-15T03:24:21;39.2;;;22.2;;
41229;SDS011;26964;50.428;19.218;2024-02-15T03:25:21;36.9;;;20.9;;
41229;SDS011;26964;50.428;19.218;2024-02-15T03:26:28;36.1;;;21.6;;
41229;SDS011;26964;50.428;19.218;2024-02-15T03:27:21;36.7;;;20.9;;
41229;SDS011;26964;50.428;19.218;2024-02-15T03:28:21;37.5;;;20.6;;
41229;SDS011;26964;50.428;19.218;2024-02-15T03:29:21;37.2;;;21.2;;
41229;SDS011;26964;50.428;19.218;2024-02-15T03:30:24;38.0;;;21.2;;
41229;SDS011;26964;50.428;19.218;2024-02-15T03:31:21;40.0;;;21.4;;
41229;SDS011;26964;50.428;19.218;2024-02-15T03:32:21;36.8;;;21.0;;
41229;SDS011;26964;50.428;19.218;2024-02-15T03:33:21;38.0;;;21.2;;
41229;SDS011;26964;50.428;19.218;2024-02-15T03:34:21;41.7;;;22.5;;
41229;SDS011;26964;50.428;19.218;2024-02-15T03:35:21;37.2;;;21.3;;
41229;SDS011;26964;50.428;19.218;2024-02-15T03:36:21;37.1;;;21.3;;
41229;SDS011;26964;50.428;19.218;2024-02-15T03:37:21;35.5;;;20.7;;
41229;SDS011;26964;50.428;19.218;2024-02-15T03:38:21;37.7;;;20.6;;
41229;SDS011;26964;50.428;19.218;2024-02-15T03:39:21;35.4;;;21.6;;
41229;SDS011;26964;50.428;19.218;2024-02-15T03:40:21;35.5;;;21.2;;
41229;SDS011;26964;50.428;19.218;2024-02-15T03:41:21;33.6;;;20.7;;
41229;SDS011;26964;50.428;19.218;2024-02-15T03:42:21;40.4;;;21.2;;
41229;SDS011;26964;50.428;19.218;2024-02-15T03:43:21;37.3;;;21.8;;
41229;SDS011;26964;50.428;19.218;2024-02-15T03:44:22;36.5;;;21.1;;
41229;SDS011;26964;50.428;19.218;2024-02-15T03:45:21;46.0;;;23.8;;
41229;SDS011;26964;50.428;19.218;2024-02-15T03:46:21;34.2;;;21.3;;
41229;SDS011;26964;50.428;19.218;2024-02-15T03:47:21;38.0;;;22.5;;
41229;SDS011;26964;50.428;19.218;2024-02-15T03:48:21;37.6;;;22.3;;
41229;SDS011;26964;50.428;19.218;2024-02-15T03:49:21;42.3;;;23.4;;
41229;SDS011;26964;50.428;19.218;2024-02-15T03:50:21;39.2;;;21.6;;
41229;SDS011;26964;50.428;19.218;2024-02-15T03:51:24;39.4;;;24.1;;
41229;SDS011;26964;50.428;19.218;2024-02-15T03:52:21;37.7;;;22.1;;
41229;SDS011;26964;50.428;19.218;2024-02-15T03:53:21;38.2;;;22.3;;
41229;SDS011;26964;50.428;19.218;2024-02-15T03:54:21;42.0;;;23.6;;
41229;SDS011;26964;50.428;19.218;2024-02-15T03:55:21;37.8;;;24.0;;
41229;SDS011;26964;50.428;19.218;2024-02-15T03:56:21;38.6;;;23.5;;
41229;SDS011;26964;50.428;19.218;2024-02-15T03:57:21;40.7;;;23.1;;
41229;SDS011;26964;50.428;19.218;2024-02-15T03:58:21;40.3;;;24.8;;
41229;SDS011;26964;50.428;19.218;2024-02-15T03:59:21;40.0;;;24.8;;
41229;SDS011;26964;50.428;19.218;2024-02-15T04:00:21;40.0;;;23.5;;
41229;SDS011;26964;50.428;19.218;2024-02-15T04:01:21;44.5;;;24.1;;
41229;SDS011;26964;50.428;19.218;2024-02-15T04:02:21;40.3;;;24.3;;
41229;SDS011;26964;50.428;19.218;2024-02-15T04:03:21;44.5;;;24.9;;
41229;SDS011;26964;50.428;19.218;2024-02-15T04:04:21;35.6;;;22.1;;
41229;SDS011;26964;50.428;19.218;2024-02-15T04:05:21;42.1;;;25.6;;
41229;SDS011;26964;50.428;19.218;2024-02-15T04:06:21;43.2;;;24.7;;
41229;SDS011;26964;50.428;19.218;2024-02-15T04:07:21;42.7;;;25.6;;
41229;SDS011;26964;50.428;19.218;2024-02-15T04:08:21;42.7;;;26.3;;
41229;SDS011;26964;50.428;19.218;2024-02-15T04:09:21;49.2;;;25.6;;
41229;SDS011;26964;50.428;19.218;2024-02-15T04:10:21;37.8;;;23.9;;
41229;SDS011;26964;50.428;19.218;2024-02-15T04:11:21;40.4;;;25.3;;
41229;SDS011;26964;50.428;19.218;2024-02-15T04:12:23;41.9;;;25.3;;
41229;SDS011;26964;50.428;19.218;2024-02-15T04:13:21;41.0;;;24.4;;
41229;SDS011;26964;50.428;19.218;2024-02-15T04:14:21;41.5;;;24.4;;
41229;SDS011;26964;50.428;19.218;2024-02-15T04:15:21;39.4;;;23.0;;
41229;SDS011;26964;50.428;19.218;2024-02-15T04:16:21;39.0;;;23.9;;
41229;SDS011;26964;50.428;19.218;2024-02-15T04:17:21;39.4;;;23.0;;
41229;SDS011;26964;50.428;19.218;2024-02-15T04:18:21;39.0;;;24.6;;
41229;SDS011;26964;50.428;19.218;2024-02-15T04:19:21;40.0;;;24.6;;
41229;SDS011;26964;50.428;19.218;2024-02-15T04:20:21;42.6;;;24.0;;
41229;SDS011;26964;50.428;19.218;2024-02-15T04:21:21;41.1;;;24.2;;
41229;SDS011;26964;50.428;19.218;2024-02-15T04:22:21;38.3;;;24.0;;
41229;SDS011;26964;50.428;19.218;2024-02-15T04:23:21;42.5;;;24.2;;
41229;SDS011;26964;50.428;19.218;2024-02-15T04:24:21;38.7;;;24.4;;
41229;SDS011;26964;50.428;19.218;2024-02-15T04:25:21;41.2;;;24.7;;
41229;SDS011;26964;50.428;19.218;2024-02-15T04:26:21;38.7;;;23.6;;
41229;SDS011;26964;50.428;19.218;2024-02-15T04:27:21;42.8;;;24.8;;
41229;SDS011;26964;50.428;19.218;2024-02-15T04:28:21;43.0;;;24.4;;
41229;SDS011;26964;50.428;19.218;2024-02-15T04:29:21;40.2;;;22.2;;
41229;SDS011;26964;50.428;19.218;2024-02-15T04:30:21;38.5;;;23.0;;
41229;SDS011;26964;50.428;19.218;2024-02-15T04:31:21;39.4;;;23.3;;
41229;SDS011;26964;50.428;19.218;2024-02-15T04:32:21;40.8;;;23.6;;
41229;SDS011;26964;50.428;19.218;2024-02-15T04:33:23;38.7;;;23.3;;
41229;SDS011;26964;50.428;19.218;2024-02-15T04:34:21;37.2;;;22.6;;
41229;SDS011;26964;50.428;19.218;2024-02-15T04:35:21;38.3;;;22.9;;
41229;SDS011;26964;50.428;19.218;2024-02-15T04:36:21;39.9;;;23.4;;
41229;SDS011;26964;50.428;19.218;2024-02-15T04:37:21;37.1;;;23.4;;
41229;SDS011;26964;50.428;19.218;2024-02-15T04:38:21;37.0;;;22.6;;
41229;SDS011;26964;50.428;19.218;2024-02-15T04:39:21;39.0;;;24.0;;
41229;SDS011;26964;50.428;19.218;2024-02-15T04:40:21;37.1;;;24.0;;
41229;SDS011;26964;50.428;19.218;2024-02-15T04:41:21;37.6;;;23.6;;
41229;SDS011;26964;50.428;19.218;2024-02-15T04:42:21;41.6;;;24.5;;
41229;SDS011;26964;50.428;19.218;2024-02-15T04:43:21;34.3;;;22.0;;
41229;SDS011;26964;50.428;19.218;2024-02-15T04:44:21;39.6;;;22.6;;
41229;SDS011;26964;50.428;19.218;2024-02-15T04:45:21;36.3;;;22.9;;
41229;SDS011;26964;50.428;19.218;2024-02-15T04:46:22;37.1;;;21.6;;
41229;SDS011;26964;50.428;19.218;2024-02-15T04:47:21;38.6;;;21.6;;
41229;SDS011;26964;50.428;19.218;2024-02-15T04:48:21;31.6;;;20.7;;
41229;SDS011;26964;50.428;19.218;2024-02-15T04:49:21;37.0;;;22.4;;
41229;SDS011;26964;50.428;19.218;2024-02-15T04:50:21;35.1;;;20.7;;
41229;SDS011;26964;50.428;19.218;2024-02-15T04:51:21;40.1;;;20.9;;
41229;SDS011;26964;50.428;19.218;2024-02-15T04:52:21;40.1;;;20.7;;
41229;SDS011;26964;50.428;19.218;2024-02-15T04:53:21;35.9;;;21.3;;
41229;SDS011;26964;50.428;19.218;2024-02-15T04:54:24;34.3;;;20.6;;
41229;SDS011;26964;50.428;19.218;2024-02-15T04:55:21;34.5;;;19.5;;
41229;SDS011;26964;50.428;19.218;2024-02-15T04:56:21;34.6;;;20.2;;
41229;SDS011;26964;50.428;19.218;2024-02-15T04:57:21;34.1;;;19.5;;
41229;SDS011;26964;50.428;19.218;2024-02-15T04:58:21;32.9;;;19.2;;
41229;SDS011;26964;50.428;19.218;2024-02-15T04:59:21;31.7;;;20.0;;
41229;SDS011;26964;50.428;19.218;2024-02-15T05:00:22;31.1;;;19.3;;
41229;SDS011;26964;50.428;19.218;2024-02-15T05:01:21;32.6;;;18.7;;
41229;SDS011;26964;50.428;19.218;2024-02-15T05:02:21;31.4;;;18.6;;
41229;SDS011;26964;50.428;19.218;2024-02-15T05:03:21;28.8;;;18.6;;
41229;SDS011;26964;50.428;19.218;2024-02-15T05:04:21;33.0;;;20.1;;
41229;SDS011;26964;50.428;19.218;2024-02-15T05:05:21;33.1;;;19.1;;
41229;SDS011;26964;50.428;19.218;2024-02-15T05:06:21;32.9;;;19.1;;
41229;SDS011;26964;50.428;19.218;2024-02-15T05:07:22;33.6;;;19.1;;
41229;SDS011;26964;50.428;19.218;2024-02-15T05:08:21;33.5;;;19.1;;
41229;SDS011;26964;50.428;19.218;2024-02-15T05:09:21;31.4;;;18.5;;
41229;SDS011;26964;50.428;19.218;2024-02-15T05:10:21;30.3;;;17.5;;
41229;SDS011;26964;50.428;19.218;2024-02-15T05:11:21;30.3;;;18.1;;
41229;SDS011;26964;50.428;19.218;2024-02-15T05:12:21;31.4;;;18.4;;
41229;SDS011;26964;50.428;19.218;2024-02-15T05:13:21;26.7;;;17.6;;
41229;SDS011;26964;50.428;19.218;2024-02-15T05:14:21;32.2;;;18.0;;
41229;SDS011;26964;50.428;19.218;2024-02-15T05:15:24;32.1;;;18.9;;
41229;SDS011;26964;50.428;19.218;2024-02-15T05:16:21;29.5;;;17.9;;
41229;SDS011;26964;50.428;19.218;2024-02-15T05:17:21;28.0;;;17.6;;
41229;SDS011;26964;50.428;19.218;2024-02-15T05:18:21;26.8;;;17.2;;
41229;SDS011;26964;50.428;19.218;2024-02-15T05:19:21;31.2;;;17.3;;
41229;SDS011;26964;50.428;19.218;2024-02-15T05:20:21;23.8;;;16.9;;
41229;SDS011;26964;50.428;19.218;2024-02-15T05:21:21;29.2;;;17.7;;
41229;SDS011;26964;50.428;19.218;2024-02-15T05:22:21;30.5;;;17.9;;
41229;SDS011;26964;50.428;19.218;2024-02-15T05:23:21;24.7;;;15.8;;
41229;SDS011;26964;50.428;19.218;2024-02-15T05:24:21;28.4;;;17.7;;
41229;SDS011;26964;50.428;19.218;2024-02-15T05:25:21;34.8;;;18.8;;
41229;SDS011;26964;50.428;19.218;2024-02-15T05:26:21;30.4;;;18.8;;
41229;SDS011;26964;50.428;19.218;2024-02-15T05:27:21;28.9;;;17.5;;
41229;SDS011;26964;50.428;19.218;2024-02-15T05:28:21;31.3;;;17.9;;
41229;SDS011;26964;50.428;19.218;2024-02-15T05:29:21;26.6;;;16.9;;
41229;SDS011;26964;50.428;19.218;2024-02-15T05:30:21;26.6;;;16.7;;
41229;SDS011;26964;50.428;19.218;2024-02-15T05:31:21;29.0;;;17.6;;
41229;SDS011;26964;50.428;19.218;2024-02-15T05:32:21;31.6;;;17.0;;
41229;SDS011;26964;50.428;19.218;2024-02-15T05:33:21;25.9;;;16.4;;
41229;SDS011;26964;50.428;19.218;2024-02-15T05:34:21;28.3;;;16.1;;
41229;SDS011;26964;50.428;19.218;2024-02-15T05:35:21;30.6;;;16.1;;
41229;SDS011;26964;50.428;19.218;2024-02-15T05:36:24;28.0;;;17.4;;
41229;SDS011;26964;50.428;19.218;2024-02-15T05:37:21;28.7;;;16.8;;
41229;SDS011;26964;50.428;19.218;2024-02-15T05:38:21;29.3;;;16.6;;
41229;SDS011;26964;50.428;19.218;2024-02-15T05:39:21;32.2;;;17.7;;
41229;SDS011;26964;50.428;19.218;2024-02-15T05:40:21;30.1;;;17.7;;
41229;SDS011;26964;50.428;19.218;2024-02-15T05:41:21;29.6;;;18.3;;
41229;SDS011;26964;50.428;19.218;2024-02-15T05:42:21;27.1;;;17.3;;
41229;SDS011;26964;50.428;19.218;2024-02-15T05:43:21;27.7;;;18.6;;
41229;SDS011;26964;50.428;19.218;2024-02-15T05:44:21;28.5;;;18.1;;
41229;SDS011;26964;50.428;19.218;2024-02-15T05:46:21;28.2;;;17.8;;
41229;SDS011;26964;50.428;19.218;2024-02-15T05:47:21;31.9;;;18.4;;
41229;SDS011;26964;50.428;19.218;2024-02-15T05:48:21;29.8;;;17.7;;
41229;SDS011;26964;50.428;19.218;2024-02-15T05:49:21;30.4;;;17.8;;
41229;SDS011;26964;50.428;19.218;2024-02-15T05:50:21;31.7;;;19.0;;
41229;SDS011;26964;50.428;19.218;2024-02-15T05:51:21;29.6;;;18.6;;
41229;SDS011;26964;50.428;19.218;2024-02-15T05:52:21;32.2;;;19.2;;
41229;SDS011;26964;50.428;19.218;2024-02-15T05:53:21;30.6;;;18.7;;
41229;SDS011;26964;50.428;19.218;2024-02-15T05:54:21;30.7;;;19.1;;
41229;SDS011;26964;50.428;19.218;2024-02-15T05:55:21;31.3;;;19.5;;
41229;SDS011;26964;50.428;19.218;2024-02-15T05:56:21;32.2;;;21.0;;
41229;SDS011;26964;50.428;19.218;2024-02-15T05:57:24;44.0;;;24.2;;
41229;SDS011;26964;50.428;19.218;2024-02-15T05:58:21;46.1;;;24.8;;